CVG Airport (Cincinnati/Northern Kentucky Intl) Information

FAA: CVG - ICAO: KCVG

CVG Airport Location

State Kentucky
County Boone
City Covington
CVG Airport is 8 miles southwest of Covington, KY.
Latitude 39-02-55.8120N
Longitude 084-40-04.1600W
Elevation 896ft

KCVG Airport METARs

METAR KCVG 032052Z 12007KT 10SM FEW300 15/04 A2994 RMK AO2 SLP135 T01500039 56018
Altimeter 29.94"
Temperature 15.0°C (59.0°F)
Wind 120° at 7KT
Clouds few at 30,000ft
Visibility 10.0mi
Time observed: 2021-12-03T20:52:00Z

CVG Airport Details

Status Operational
Activation December 1944
Ownership Public
Usage Public
Chart CINCINNATI
ATC on-site Yes
Beacon schedule sunset-sunrise
Beacon color clear green

CVG Airport Contacts

Owner KENTON COUNTY ARPT BOARD
Owner address PO BOX 752000, CINCINNATI, OH 45275-2000
Owner phone 859-767-3151
Manager JOHN WARD
Manager address P.O. BOX 36, CALVERT CITY, KY 42029
Manager phone (270) 395-7138

CVG Airport (Cincinnati/Northern Kentucky Intl) Radio Frequencies

CVG (Airport) Radio Frequencies

UNICOM 122.95
Common traffic advisory frequency (CTAF) N/A